sensor_id;sensor_type;location;lat;lon;timestamp;pressure;altitude;pressure_sealevel;temperature;humidity
804;BME280;25687;49.976;8.240;2023-12-28T00:01:14;100072.38;;;1.77;100.00
804;BME280;25687;49.976;8.240;2023-12-28T00:03:40;100073.22;;;1.78;100.00
804;BME280;25687;49.976;8.240;2023-12-28T00:06:06;100069.97;;;1.71;100.00
804;BME280;25687;49.976;8.240;2023-12-28T00:08:31;100059.25;;;1.55;100.00
804;BME280;25687;49.976;8.240;2023-12-28T00:10:57;100054.94;;;1.60;100.00
804;BME280;25687;49.976;8.240;2023-12-28T00:13:23;100063.19;;;1.72;100.00
804;BME280;25687;49.976;8.240;2023-12-28T00:15:48;100050.44;;;1.75;100.00
804;BME280;25687;49.976;8.240;2023-12-28T00:18:13;100053.63;;;1.85;100.00
804;BME280;25687;49.976;8.240;2023-12-28T00:20:38;100054.63;;;1.77;100.00
804;BME280;25687;49.976;8.240;2023-12-28T00:23:04;100065.38;;;1.90;100.00
804;BME280;25687;49.976;8.240;2023-12-28T00:25:30;100056.03;;;1.91;100.00
804;BME280;25687;49.976;8.240;2023-12-28T00:27:55;100055.97;;;1.96;100.00
804;BME280;25687;49.976;8.240;2023-12-28T00:30:21;100059.19;;;2.04;100.00
804;BME280;25687;49.976;8.240;2023-12-28T00:32:46;100057.44;;;2.06;100.00
804;BME280;25687;49.976;8.240;2023-12-28T00:35:11;100054.84;;;2.09;100.00
804;BME280;25687;49.976;8.240;2023-12-28T00:37:36;100061.53;;;2.15;100.00
804;BME280;25687;49.976;8.240;2023-12-28T00:40:02;100061.47;;;2.16;100.00
804;BME280;25687;49.976;8.240;2023-12-28T00:42:27;100055.25;;;2.31;100.00
804;BME280;25687;49.976;8.240;2023-12-28T00:44:53;100056.03;;;2.35;100.00
804;BME280;25687;49.976;8.240;2023-12-28T00:47:18;100055.84;;;2.42;100.00
804;BME280;25687;49.976;8.240;2023-12-28T00:49:43;100051.81;;;2.34;100.00
804;BME280;25687;49.976;8.240;2023-12-28T00:52:09;100046.78;;;2.32;100.00
804;BME280;25687;49.976;8.240;2023-12-28T00:54:35;100044.56;;;2.15;100.00
804;BME280;25687;49.976;8.240;2023-12-28T00:57:03;100042.38;;;2.39;100.00
804;BME280;25687;49.976;8.240;2023-12-28T00:59:28;100043.19;;;2.41;100.00
804;BME280;25687;49.976;8.240;2023-12-28T01:01:55;100030.28;;;2.50;100.00
804;BME280;25687;49.976;8.240;2023-12-28T01:04:20;100023.19;;;2.65;100.00
804;BME280;25687;49.976;8.240;2023-12-28T01:06:48;100014.91;;;2.56;100.00
804;BME280;25687;49.976;8.240;2023-12-28T01:09:13;100026.41;;;2.73;100.00
804;BME280;25687;49.976;8.240;2023-12-28T01:11:38;100043.00;;;2.86;100.00
804;BME280;25687;49.976;8.240;2023-12-28T01:14:04;100055.47;;;2.97;100.00
804;BME280;25687;49.976;8.240;2023-12-28T01:16:29;100066.25;;;3.07;100.00
804;BME280;25687;49.976;8.240;2023-12-28T01:18:54;100079.97;;;3.00;100.00
804;BME280;25687;49.976;8.240;2023-12-28T01:21:20;100073.00;;;3.08;100.00
804;BME280;25687;49.976;8.240;2023-12-28T01:23:45;100075.91;;;3.27;100.00
804;BME280;25687;49.976;8.240;2023-12-28T01:26:14;100082.63;;;3.31;100.00
804;BME280;25687;49.976;8.240;2023-12-28T01:28:39;100079.03;;;3.38;100.00
804;BME280;25687;49.976;8.240;2023-12-28T01:31:05;100084.59;;;3.53;100.00
804;BME280;25687;49.976;8.240;2023-12-28T01:33:30;100077.84;;;3.52;100.00
804;BME280;25687;49.976;8.240;2023-12-28T01:35:55;100085.31;;;3.58;100.00
804;BME280;25687;49.976;8.240;2023-12-28T01:38:21;100086.13;;;3.60;100.00
804;BME280;25687;49.976;8.240;2023-12-28T01:40:46;100090.34;;;3.60;100.00
804;BME280;25687;49.976;8.240;2023-12-28T01:43:11;100101.03;;;3.74;100.00
804;BME280;25687;49.976;8.240;2023-12-28T01:45:36;100098.44;;;3.76;100.00
804;BME280;25687;49.976;8.240;2023-12-28T01:48:02;100098.38;;;3.79;100.00
804;BME280;25687;49.976;8.240;2023-12-28T01:50:28;100099.03;;;3.85;100.00
804;BME280;25687;49.976;8.240;2023-12-28T01:52:54;100108.38;;;3.85;100.00
804;BME280;25687;49.976;8.240;2023-12-28T01:55:20;100107.78;;;4.07;100.00
804;BME280;25687;49.976;8.240;2023-12-28T01:57:47;100112.63;;;4.16;100.00
804;BME280;25687;49.976;8.240;2023-12-28T02:00:13;100107.44;;;4.19;100.00
804;BME280;25687;49.976;8.240;2023-12-28T02:02:39;100104.19;;;4.14;100.00
804;BME280;25687;49.976;8.240;2023-12-28T02:05:04;100101.31;;;4.26;100.00
804;BME280;25687;49.976;8.240;2023-12-28T02:07:32;100119.72;;;4.36;100.00
804;BME280;25687;49.976;8.240;2023-12-28T02:09:57;100124.84;;;4.34;100.00
804;BME280;25687;49.976;8.240;2023-12-28T02:12:23;100130.53;;;4.43;100.00
804;BME280;25687;49.976;8.240;2023-12-28T02:14:48;100125.19;;;4.52;100.00
804;BME280;25687;49.976;8.240;2023-12-28T02:17:23;100135.84;;;4.66;100.00
804;BME280;25687;49.976;8.240;2023-12-28T02:19:54;100128.91;;;4.70;100.00
804;BME280;25687;49.976;8.240;2023-12-28T02:22:21;100121.66;;;4.58;100.00
804;BME280;25687;49.976;8.240;2023-12-28T02:25:04;100122.25;;;4.66;100.00
804;BME280;25687;49.976;8.240;2023-12-28T02:27:31;100133.09;;;4.73;100.00
804;BME280;25687;49.976;8.240;2023-12-28T02:29:57;100133.41;;;4.62;100.00
804;BME280;25687;49.976;8.240;2023-12-28T02:32:32;100139.81;;;4.75;100.00
804;BME280;25687;49.976;8.240;2023-12-28T02:35:10;100138.47;;;4.92;100.00
804;BME280;25687;49.976;8.240;2023-12-28T02:37:39;100133.53;;;5.14;100.00
804;BME280;25687;49.976;8.240;2023-12-28T02:40:05;100129.34;;;5.40;100.00
804;BME280;25687;49.976;8.240;2023-12-28T02:42:31;100130.16;;;5.65;100.00
804;BME280;25687;49.976;8.240;2023-12-28T02:44:56;100118.72;;;5.77;100.00
804;BME280;25687;49.976;8.240;2023-12-28T02:47:22;100117.56;;;6.11;100.00
804;BME280;25687;49.976;8.240;2023-12-28T02:49:47;100114.97;;;6.37;100.00
804;BME280;25687;49.976;8.240;2023-12-28T02:52:12;100112.91;;;6.46;100.00
804;BME280;25687;49.976;8.240;2023-12-28T02:54:37;100101.38;;;6.58;100.00
804;BME280;25687;49.976;8.240;2023-12-28T02:57:03;100121.25;;;6.74;100.00
804;BME280;25687;49.976;8.240;2023-12-28T02:59:28;100116.97;;;6.74;100.00
804;BME280;25687;49.976;8.240;2023-12-28T03:01:53;100109.94;;;6.79;100.00
804;BME280;25687;49.976;8.240;2023-12-28T03:04:19;100092.03;;;6.79;100.00
804;BME280;25687;49.976;8.240;2023-12-28T03:06:46;100080.28;;;6.98;100.00
804;BME280;25687;49.976;8.240;2023-12-28T03:09:11;100082.50;;;7.05;100.00
804;BME280;25687;49.976;8.240;2023-12-28T03:11:36;100098.09;;;6.99;100.00
804;BME280;25687;49.976;8.240;2023-12-28T03:14:02;100090.75;;;6.91;100.00
804;BME280;25687;49.976;8.240;2023-12-28T03:16:27;100103.59;;;7.12;100.00
804;BME280;25687;49.976;8.240;2023-12-28T03:18:52;100096.16;;;7.06;100.00
804;BME280;25687;49.976;8.240;2023-12-28T03:21:17;100101.72;;;7.16;100.00
804;BME280;25687;49.976;8.240;2023-12-28T03:23:44;100100.47;;;7.26;100.00
804;BME280;25687;49.976;8.240;2023-12-28T03:26:09;100117.84;;;7.18;100.00
804;BME280;25687;49.976;8.240;2023-12-28T03:28:34;100106.25;;;7.09;100.00
804;BME280;25687;49.976;8.240;2023-12-28T03:31:02;100103.63;;;7.10;100.00
804;BME280;25687;49.976;8.240;2023-12-28T03:33:27;100111.66;;;7.23;100.00
804;BME280;25687;49.976;8.240;2023-12-28T03:35:52;100124.44;;;7.23;100.00
804;BME280;25687;49.976;8.240;2023-12-28T03:38:18;100119.13;;;7.28;100.00
804;BME280;25687;49.976;8.240;2023-12-28T03:40:43;100120.16;;;7.24;100.00
804;BME280;25687;49.976;8.240;2023-12-28T03:43:12;100127.50;;;7.32;100.00
804;BME280;25687;49.976;8.240;2023-12-28T03:45:37;100114.59;;;7.35;100.00
804;BME280;25687;49.976;8.240;2023-12-28T03:48:03;100112.22;;;7.30;100.00
804;BME280;25687;49.976;8.240;2023-12-28T03:50:28;100121.63;;;7.30;100.00
804;BME280;25687;49.976;8.240;2023-12-28T03:52:54;100126.28;;;7.40;100.00
804;BME280;25687;49.976;8.240;2023-12-28T03:55:19;100130.91;;;7.32;100.00
804;BME280;25687;49.976;8.240;2023-12-28T03:57:44;100134.44;;;7.30;100.00
804;BME280;25687;49.976;8.240;2023-12-28T04:00:12;100123.16;;;7.34;100.00
804;BME280;25687;49.976;8.240;2023-12-28T04:02:37;100134.13;;;7.37;100.00
804;BME280;25687;49.976;8.240;2023-12-28T04:05:02;100120.53;;;7.35;100.00
804;BME280;25687;49.976;8.240;2023-12-28T04:07:29;100130.59;;;7.40;100.00
804;BME280;25687;49.976;8.240;2023-12-28T04:09:54;100133.59;;;7.29;100.00
804;BME280;25687;49.976;8.240;2023-12-28T04:12:21;100113.06;;;7.31;100.00
804;BME280;25687;49.976;8.240;2023-12-28T04:14:46;100128.53;;;7.27;100.00
804;BME280;25687;49.976;8.240;2023-12-28T04:17:11;100133.34;;;7.35;100.00
804;BME280;25687;49.976;8.240;2023-12-28T04:19:37;100131.56;;;7.37;100.00
804;BME280;25687;49.976;8.240;2023-12-28T04:22:02;100145.63;;;7.48;100.00
804;BME280;25687;49.976;8.240;2023-12-28T04:24:27;100144.47;;;7.55;100.00
804;BME280;25687;49.976;8.240;2023-12-28T04:26:52;100146.47;;;7.48;100.00
804;BME280;25687;49.976;8.240;2023-12-28T04:29:18;100137.84;;;7.51;100.00
804;BME280;25687;49.976;8.240;2023-12-28T04:31:43;100130.53;;;7.62;100.00
804;BME280;25687;49.976;8.240;2023-12-28T04:34:08;100129.47;;;7.68;100.00
804;BME280;25687;49.976;8.240;2023-12-28T04:36:40;100151.22;;;7.57;100.00
804;BME280;25687;49.976;8.240;2023-12-28T04:39:05;100152.81;;;7.60;100.00
804;BME280;25687;49.976;8.240;2023-12-28T04:41:31;100148.53;;;7.61;100.00
804;BME280;25687;49.976;8.240;2023-12-28T04:43:56;100152.56;;;7.46;100.00
804;BME280;25687;49.976;8.240;2023-12-28T04:46:21;100141.16;;;7.53;100.00
804;BME280;25687;49.976;8.240;2023-12-28T04:48:46;100152.63;;;7.65;100.00
804;BME280;25687;49.976;8.240;2023-12-28T04:51:12;100154.66;;;7.56;100.00
804;BME280;25687;49.976;8.240;2023-12-28T04:53:39;100178.16;;;7.46;100.00
804;BME280;25687;49.976;8.240;2023-12-28T04:56:04;100168.31;;;7.57;100.00
804;BME280;25687;49.976;8.240;2023-12-28T04:58:30;100163.66;;;7.67;100.00
804;BME280;25687;49.976;8.240;2023-12-28T05:00:55;100180.41;;;7.74;100.00
804;BME280;25687;49.976;8.240;2023-12-28T05:03:20;100178.44;;;7.81;100.00
804;BME280;25687;49.976;8.240;2023-12-28T05:05:46;100176.72;;;7.59;100.00
804;BME280;25687;49.976;8.240;2023-12-28T05:08:11;100190.44;;;7.79;100.00
804;BME280;25687;49.976;8.240;2023-12-28T05:10:36;100190.59;;;7.75;100.00
804;BME280;25687;49.976;8.240;2023-12-28T05:13:01;100192.81;;;7.83;100.00
804;BME280;25687;49.976;8.240;2023-12-28T05:15:27;100200.38;;;7.66;100.00
804;BME280;25687;49.976;8.240;2023-12-28T05:17:52;100197.94;;;7.63;100.00
804;BME280;25687;49.976;8.240;2023-12-28T05:20:17;100192.88;;;7.61;100.00
804;BME280;25687;49.976;8.240;2023-12-28T05:22:43;100181.59;;;7.65;100.00
804;BME280;25687;49.976;8.240;2023-12-28T05:25:08;100187.66;;;7.64;100.00
804;BME280;25687;49.976;8.240;2023-12-28T05:27:34;100187.28;;;7.51;100.00
804;BME280;25687;49.976;8.240;2023-12-28T05:29:59;100189.53;;;7.59;100.00
804;BME280;25687;49.976;8.240;2023-12-28T05:32:24;100182.88;;;7.55;100.00
804;BME280;25687;49.976;8.240;2023-12-28T05:34:49;100186.06;;;7.39;100.00
804;BME280;25687;49.976;8.240;2023-12-28T05:37:15;100190.56;;;7.55;100.00
804;BME280;25687;49.976;8.240;2023-12-28T05:39:40;100176.47;;;7.45;100.00
804;BME280;25687;49.976;8.240;2023-12-28T05:42:05;100172.25;;;7.43;100.00
804;BME280;25687;49.976;8.240;2023-12-28T05:44:31;100184.03;;;7.48;100.00
804;BME280;25687;49.976;8.240;2023-12-28T05:46:56;100171.69;;;7.37;100.00
804;BME280;25687;49.976;8.240;2023-12-28T05:49:22;100158.75;;;7.40;100.00
804;BME280;25687;49.976;8.240;2023-12-28T05:51:47;100155.28;;;7.41;100.00
804;BME280;25687;49.976;8.240;2023-12-28T05:54:13;100154.19;;;7.26;100.00
804;BME280;25687;49.976;8.240;2023-12-28T05:56:38;100158.22;;;7.32;100.00
804;BME280;25687;49.976;8.240;2023-12-28T05:59:03;100158.53;;;7.24;100.00
804;BME280;25687;49.976;8.240;2023-12-28T06:01:29;100168.09;;;7.19;100.00
804;BME280;25687;49.976;8.240;2023-12-28T06:03:54;100167.53;;;7.12;100.00
804;BME280;25687;49.976;8.240;2023-12-28T06:06:19;100171.09;;;7.08;100.00
804;BME280;25687;49.976;8.240;2023-12-28T06:08:46;100172.09;;;7.04;100.00
804;BME280;25687;49.976;8.240;2023-12-28T06:11:11;100176.19;;;7.08;100.00
804;BME280;25687;49.976;8.240;2023-12-28T06:13:36;100172.88;;;7.06;100.00
804;BME280;25687;49.976;8.240;2023-12-28T06:16:02;100163.78;;;6.99;100.00
804;BME280;25687;49.976;8.240;2023-12-28T06:18:27;100169.53;;;7.04;100.00
804;BME280;25687;49.976;8.240;2023-12-28T06:20:53;100171.38;;;7.00;100.00
804;BME280;25687;49.976;8.240;2023-12-28T06:23:18;100170.13;;;6.88;100.00
804;BME280;25687;49.976;8.240;2023-12-28T06:25:44;100175.72;;;6.98;100.00
804;BME280;25687;49.976;8.240;2023-12-28T06:28:09;100177.56;;;6.94;100.00
804;BME280;25687;49.976;8.240;2023-12-28T06:30:35;100173.94;;;7.00;100.00
804;BME280;25687;49.976;8.240;2023-12-28T06:33:00;100174.81;;;6.99;100.00
804;BME280;25687;49.976;8.240;2023-12-28T06:35:25;100175.06;;;6.93;100.00
804;BME280;25687;49.976;8.240;2023-12-28T06:37:50;100170.56;;;7.00;100.00
804;BME280;25687;49.976;8.240;2023-12-28T06:40:16;100174.09;;;6.95;100.00
804;BME280;25687;49.976;8.240;2023-12-28T06:42:41;100163.00;;;6.97;100.00
804;BME280;25687;49.976;8.240;2023-12-28T06:45:09;100170.56;;;7.00;100.00
804;BME280;25687;49.976;8.240;2023-12-28T06:47:34;100163.66;;;7.02;100.00
804;BME280;25687;49.976;8.240;2023-12-28T06:49:59;100167.69;;;7.07;100.00
804;BME280;25687;49.976;8.240;2023-12-28T06:52:25;100163.53;;;7.05;100.00
804;BME280;25687;49.976;8.240;2023-12-28T06:54:51;100163.53;;;7.05;100.00
804;BME280;25687;49.976;8.240;2023-12-28T06:57:16;100174.66;;;7.04;100.00
804;BME280;25687;49.976;8.240;2023-12-28T06:59:41;100174.34;;;7.11;100.00
804;BME280;25687;49.976;8.240;2023-12-28T07:02:07;100184.81;;;7.05;100.00
804;BME280;25687;49.976;8.240;2023-12-28T07:04:32;100184.59;;;7.11;100.00
804;BME280;25687;49.976;8.240;2023-12-28T07:06:58;100178.25;;;7.00;100.00
804;BME280;25687;49.976;8.240;2023-12-28T07:09:23;100163.66;;;7.02;100.00
804;BME280;25687;49.976;8.240;2023-12-28T07:11:48;100162.59;;;7.07;100.00
804;BME280;25687;49.976;8.240;2023-12-28T07:14:14;100167.69;;;7.07;100.00
804;BME280;25687;49.976;8.240;2023-12-28T07:16:39;100169.72;;;6.99;100.00
804;BME280;25687;49.976;8.240;2023-12-28T07:19:04;100187.22;;;7.10;100.00
804;BME280;25687;49.976;8.240;2023-12-28T07:21:29;100178.66;;;7.11;100.00
804;BME280;25687;49.976;8.240;2023-12-28T07:23:55;100185.59;;;7.07;100.00
804;BME280;25687;49.976;8.240;2023-12-28T07:26:20;100190.00;;;7.04;100.00
804;BME280;25687;49.976;8.240;2023-12-28T07:28:45;100201.03;;;7.06;100.00
804;BME280;25687;49.976;8.240;2023-12-28T07:31:25;100196.19;;;6.98;100.00
804;BME280;25687;49.976;8.240;2023-12-28T07:33:51;100190.81;;;7.04;100.00
804;BME280;25687;49.976;8.240;2023-12-28T07:36:16;100203.84;;;6.98;100.00
804;BME280;25687;49.976;8.240;2023-12-28T07:38:42;100197.75;;;7.02;100.00
804;BME280;25687;49.976;8.240;2023-12-28T07:41:08;100207.09;;;7.03;100.00
804;BME280;25687;49.976;8.240;2023-12-28T07:43:33;100208.88;;;7.01;100.00
804;BME280;25687;49.976;8.240;2023-12-28T07:45:59;100206.06;;;7.07;100.00
804;BME280;25687;49.976;8.240;2023-12-28T07:48:24;100201.78;;;7.08;100.00
804;BME280;25687;49.976;8.240;2023-12-28T07:50:49;100209.34;;;7.11;100.00
804;BME280;25687;49.976;8.240;2023-12-28T07:53:16;100212.38;;;7.21;100.00
804;BME280;25687;49.976;8.240;2023-12-28T07:55:42;100213.69;;;7.09;100.00
804;BME280;25687;49.976;8.240;2023-12-28T07:58:07;100213.91;;;7.03;100.00
804;BME280;25687;49.976;8.240;2023-12-28T08:00:32;100205.94;;;7.10;100.00
804;BME280;25687;49.976;8.240;2023-12-28T08:02:58;100202.63;;;7.08;100.00
804;BME280;25687;49.976;8.240;2023-12-28T08:05:23;100211.13;;;7.09;100.00
804;BME280;25687;49.976;8.240;2023-12-28T08:07:49;100215.28;;;7.11;100.00
804;BME280;25687;49.976;8.240;2023-12-28T08:10:14;100204.34;;;7.08;100.00
804;BME280;25687;49.976;8.240;2023-12-28T08:12:39;100214.53;;;7.09;100.00
804;BME280;25687;49.976;8.240;2023-12-28T08:15:05;100212.31;;;7.00;100.00
804;BME280;25687;49.976;8.240;2023-12-28T08:17:30;100209.59;;;7.05;100.00
804;BME280;25687;49.976;8.240;2023-12-28T08:19:56;100208.63;;;7.07;100.00
804;BME280;25687;49.976;8.240;2023-12-28T08:22:21;100212.47;;;6.95;100.00
804;BME280;25687;49.976;8.240;2023-12-28T08:24:46;100203.34;;;7.12;100.00
804;BME280;25687;49.976;8.240;2023-12-28T08:27:12;100211.06;;;7.10;100.00
804;BME280;25687;49.976;8.240;2023-12-28T08:29:37;100215.03;;;6.95;100.00
804;BME280;25687;49.976;8.240;2023-12-28T08:32:02;100209.28;;;7.13;100.00
804;BME280;25687;49.976;8.240;2023-12-28T08:34:28;100204.34;;;7.30;100.00
804;BME280;25687;49.976;8.240;2023-12-28T08:36:53;100203.91;;;7.41;100.00
804;BME280;25687;49.976;8.240;2023-12-28T08:39:18;100197.03;;;7.43;100.00
804;BME280;25687;49.976;8.240;2023-12-28T08:41:43;100192.84;;;7.40;100.00
804;BME280;25687;49.976;8.240;2023-12-28T08:44:09;100188.38;;;7.46;100.00
804;BME280;25687;49.976;8.240;2023-12-28T08:46:34;100189.44;;;7.40;100.00
804;BME280;25687;49.976;8.240;2023-12-28T08:48:59;100199.28;;;7.51;100.00
804;BME280;25687;49.976;8.240;2023-12-28T08:51:25;100211.94;;;7.54;100.00
804;BME280;25687;49.976;8.240;2023-12-28T08:53:50;100203.97;;;7.62;100.00
804;BME280;25687;49.976;8.240;2023-12-28T08:56:22;100208.06;;;7.66;100.00
804;BME280;25687;49.976;8.240;2023-12-28T08:58:48;100208.00;;;7.67;100.00
804;BME280;25687;49.976;8.240;2023-12-28T09:01:21;100211.00;;;7.77;100.00
804;BME280;25687;49.976;8.240;2023-12-28T09:03:48;100224.34;;;7.85;100.00
804;BME280;25687;49.976;8.240;2023-12-28T09:06:15;100226.75;;;7.88;100.00
804;BME280;25687;49.976;8.240;2023-12-28T09:08:45;100222.16;;;7.97;100.00
804;BME280;25687;49.976;8.240;2023-12-28T09:11:12;100218.31;;;8.07;100.00
804;BME280;25687;49.976;8.240;2023-12-28T09:13:39;100228.56;;;8.07;100.00
804;BME280;25687;49.976;8.240;2023-12-28T09:16:06;100226.97;;;8.44;100.00
804;BME280;25687;49.976;8.240;2023-12-28T09:18:33;100233.69;;;8.86;100.00
804;BME280;25687;49.976;8.240;2023-12-28T09:20:58;100233.38;;;9.31;100.00
804;BME280;25687;49.976;8.240;2023-12-28T09:23:23;100217.78;;;10.06;100.00
804;BME280;25687;49.976;8.240;2023-12-28T09:25:49;100223.09;;;10.70;100.00
804;BME280;25687;49.976;8.240;2023-12-28T09:28:14;100227.69;;;11.59;100.00
804;BME280;25687;49.976;8.240;2023-12-28T09:30:39;100229.31;;;12.35;100.00
804;BME280;25687;49.976;8.240;2023-12-28T09:33:05;100226.38;;;12.56;100.00
804;BME280;25687;49.976;8.240;2023-12-28T09:35:31;100224.59;;;12.85;100.00
804;BME280;25687;49.976;8.240;2023-12-28T09:37:56;100225.34;;;13.15;100.00
804;BME280;25687;49.976;8.240;2023-12-28T09:40:21;100224.84;;;12.95;100.00
804;BME280;25687;49.976;8.240;2023-12-28T09:43:03;100233.16;;;13.55;100.00
804;BME280;25687;49.976;8.240;2023-12-28T09:45:32;100239.31;;;13.25;100.00
804;BME280;25687;49.976;8.240;2023-12-28T09:47:57;100247.88;;;14.45;100.00
804;BME280;25687;49.976;8.240;2023-12-28T09:50:22;100242.59;;;14.85;100.00
804;BME280;25687;49.976;8.240;2023-12-28T09:52:52;100240.56;;;14.26;100.00
804;BME280;25687;49.976;8.240;2023-12-28T09:55:17;100245.78;;;13.60;100.00
804;BME280;25687;49.976;8.240;2023-12-28T09:57:42;100247.44;;;12.63;100.00
804;BME280;25687;49.976;8.240;2023-12-28T10:00:09;100255.47;;;12.29;100.00
804;BME280;25687;49.976;8.240;2023-12-28T10:02:36;100256.38;;;11.83;100.00
804;BME280;25687;49.976;8.240;2023-12-28T10:05:01;100235.78;;;12.57;100.00
804;BME280;25687;49.976;8.240;2023-12-28T10:07:26;100233.56;;;12.51;100.00
804;BME280;25687;49.976;8.240;2023-12-28T10:09:52;100238.72;;;11.91;100.00
804;BME280;25687;49.976;8.240;2023-12-28T10:12:17;100240.19;;;11.35;100.00
804;BME280;25687;49.976;8.240;2023-12-28T10:14:42;100240.50;;;10.48;100.00
804;BME280;25687;49.976;8.240;2023-12-28T10:17:08;100246.59;;;10.12;100.00
804;BME280;25687;49.976;8.240;2023-12-28T10:19:34;100240.69;;;9.75;100.00
804;BME280;25687;49.976;8.240;2023-12-28T10:21:59;100245.59;;;9.62;100.00
804;BME280;25687;49.976;8.240;2023-12-28T10:24:25;100241.66;;;9.55;100.00
804;BME280;25687;49.976;8.240;2023-12-28T10:26:50;100248.22;;;9.61;100.00
804;BME280;25687;49.976;8.240;2023-12-28T10:29:17;100248.50;;;9.74;100.00
804;BME280;25687;49.976;8.240;2023-12-28T10:31:42;100243.25;;;9.58;100.00
804;BME280;25687;49.976;8.240;2023-12-28T10:34:08;100237.19;;;9.59;100.00
804;BME280;25687;49.976;8.240;2023-12-28T10:36:34;100239.91;;;9.38;100.00
804;BME280;25687;49.976;8.240;2023-12-28T10:39:01;100238.31;;;9.35;100.00
804;BME280;25687;49.976;8.240;2023-12-28T10:41:30;100229.22;;;9.28;100.00
804;BME280;25687;49.976;8.240;2023-12-28T10:44:02;100232.97;;;9.21;100.00
804;BME280;25687;49.976;8.240;2023-12-28T10:46:30;100237.88;;;9.08;100.00
804;BME280;25687;49.976;8.240;2023-12-28T10:49:11;100245.56;;;9.08;100.00
804;BME280;25687;49.976;8.240;2023-12-28T10:51:41;100238.88;;;9.04;100.00
804;BME280;25687;49.976;8.240;2023-12-28T10:54:35;100232.31;;;8.98;100.00
804;BME280;25687;49.976;8.240;2023-12-28T10:57:24;100233.06;;;9.19;100.00
804;BME280;25687;49.976;8.240;2023-12-28T11:00:10;100227.38;;;9.13;100.00
804;BME280;25687;49.976;8.240;2023-12-28T11:02:45;100235.59;;;9.39;100.00
804;BME280;25687;49.976;8.240;2023-12-28T11:05:12;100234.69;;;9.57;100.00
804;BME280;25687;49.976;8.240;2023-12-28T11:07:38;100228.53;;;9.61;100.00
804;BME280;25687;49.976;8.240;2023-12-28T11:10:06;100224.06;;;9.65;100.00
804;BME280;25687;49.976;8.240;2023-12-28T11:12:32;100233.38;;;9.67;100.00
804;BME280;25687;49.976;8.240;2023-12-28T11:14:59;100222.72;;;9.58;100.00
804;BME280;25687;49.976;8.240;2023-12-28T11:17:25;100224.28;;;9.60;100.00
804;BME280;25687;49.976;8.240;2023-12-28T11:19:51;100219.28;;;9.57;100.00
804;BME280;25687;49.976;8.240;2023-12-28T11:22:18;100220.44;;;9.69;100.00
804;BME280;25687;49.976;8.240;2023-12-28T11:24:44;100213.72;;;9.66;100.00
804;BME280;25687;49.976;8.240;2023-12-28T11:27:10;100215.16;;;9.72;100.00
804;BME280;25687;49.976;8.240;2023-12-28T11:29:36;100206.41;;;9.76;100.00
804;BME280;25687;49.976;8.240;2023-12-28T11:32:02;100209.50;;;9.83;100.00
804;BME280;25687;49.976;8.240;2023-12-28T11:34:28;100207.50;;;9.88;100.00
804;BME280;25687;49.976;8.240;2023-12-28T11:36:55;100208.50;;;9.85;100.00
804;BME280;25687;49.976;8.240;2023-12-28T11:39:41;100211.66;;;9.91;100.00
804;BME280;25687;49.976;8.240;2023-12-28T11:42:09;100205.41;;;9.96;100.00
804;BME280;25687;49.976;8.240;2023-12-28T11:44:42;100208.28;;;9.90;100.00
804;BME280;25687;49.976;8.240;2023-12-28T11:47:15;100205.22;;;9.99;100.00
804;BME280;25687;49.976;8.240;2023-12-28T11:49:41;100208.03;;;10.12;100.00
804;BME280;25687;49.976;8.240;2023-12-28T11:52:07;100197.44;;;10.18;100.00
804;BME280;25687;49.976;8.240;2023-12-28T11:54:32;100196.16;;;10.10;100.00
804;BME280;25687;49.976;8.240;2023-12-28T11:56:58;100192.16;;;10.04;100.00
804;BME280;25687;49.976;8.240;2023-12-28T11:59:23;100201.97;;;10.13;100.00
804;BME280;25687;49.976;8.240;2023-12-28T12:01:54;100195.94;;;9.97;100.00
804;BME280;25687;49.976;8.240;2023-12-28T12:04:20;100189.59;;;10.04;100.00
804;BME280;25687;49.976;8.240;2023-12-28T12:06:46;100182.38;;;10.11;100.00
804;BME280;25687;49.976;8.240;2023-12-28T12:09:14;100183.06;;;10.14;100.00
804;BME280;25687;49.976;8.240;2023-12-28T12:11:40;100179.34;;;10.20;100.00
804;BME280;25687;49.976;8.240;2023-12-28T12:14:08;100176.69;;;10.22;100.00
804;BME280;25687;49.976;8.240;2023-12-28T12:16:35;100173.41;;;10.36;100.00
804;BME280;25687;49.976;8.240;2023-12-28T12:19:00;100168.81;;;10.42;100.00
804;BME280;25687;49.976;8.240;2023-12-28T12:21:27;100173.44;;;10.52;100.00
804;BME280;25687;49.976;8.240;2023-12-28T12:23:52;100170.88;;;10.52;100.00
804;BME280;25687;49.976;8.240;2023-12-28T12:26:18;100164.00;;;10.52;100.00
804;BME280;25687;49.976;8.240;2023-12-28T12:28:43;100163.94;;;10.70;100.00
804;BME280;25687;49.976;8.240;2023-12-28T12:31:10;100152.66;;;10.72;100.00
804;BME280;25687;49.976;8.240;2023-12-28T12:33:36;100149.06;;;10.75;100.00
804;BME280;25687;49.976;8.240;2023-12-28T12:36:03;100138.28;;;10.68;100.00
804;BME280;25687;49.976;8.240;2023-12-28T12:38:31;100129.50;;;10.72;100.00
804;BME280;25687;49.976;8.240;2023-12-28T12:40:57;100140.88;;;10.68;100.00
804;BME280;25687;49.976;8.240;2023-12-28T12:43:23;100141.91;;;10.48;100.00
804;BME280;25687;49.976;8.240;2023-12-28T12:45:48;100138.13;;;10.55;100.00
804;BME280;25687;49.976;8.240;2023-12-28T12:48:13;100137.97;;;10.42;100.00
804;BME280;25687;49.976;8.240;2023-12-28T12:50:39;100134.25;;;10.30;100.00
804;BME280;25687;49.976;8.240;2023-12-28T12:53:05;100129.09;;;10.30;100.00
804;BME280;25687;49.976;8.240;2023-12-28T12:55:31;100137.72;;;10.29;100.00
804;BME280;25687;49.976;8.240;2023-12-28T12:57:57;100137.28;;;10.39;100.00
804;BME280;25687;49.976;8.240;2023-12-28T13:00:23;100136.72;;;10.49;100.00
804;BME280;25687;49.976;8.240;2023-12-28T13:02:50;100136.63;;;10.51;100.00
804;BME280;25687;49.976;8.240;2023-12-28T13:05:20;100133.53;;;10.60;100.00